createdAt,value
2023-01-26T00:02:06.333Z,23.80
2023-01-26T00:04:33.916Z,23.80
2023-01-26T00:07:01.427Z,23.80
2023-01-26T00:09:29.237Z,23.80
2023-01-26T00:11:56.762Z,23.80
2023-01-26T00:14:24.765Z,23.70
2023-01-26T00:16:53.942Z,23.70
2023-01-26T00:19:21.384Z,23.70
2023-01-26T00:21:48.725Z,23.70
2023-01-26T00:24:16.155Z,23.70
2023-01-26T00:26:43.787Z,23.70
2023-01-26T00:29:11.572Z,23.70
2023-01-26T00:31:39.201Z,23.60
2023-01-26T00:34:06.984Z,23.60
2023-01-26T00:36:37.978Z,23.60
2023-01-26T00:39:05.682Z,23.60
2023-01-26T00:41:53.911Z,23.60
2023-01-26T00:44:21.509Z,23.50
2023-01-26T00:46:49.580Z,23.50
2023-01-26T00:49:20.105Z,23.50
2023-01-26T00:51:49.136Z,23.50
2023-01-26T00:54:17.117Z,23.50
2023-01-26T00:56:47.217Z,23.50
2023-01-26T00:59:15.287Z,23.40
2023-01-26T01:01:50.269Z,23.40
2023-01-26T01:04:20.882Z,23.40
2023-01-26T01:06:48.855Z,23.40
2023-01-26T01:09:18.645Z,23.40
2023-01-26T01:11:46.526Z,23.40
2023-01-26T01:14:15.641Z,23.40
2023-01-26T01:16:45.735Z,23.40
2023-01-26T01:19:18.383Z,23.30
2023-01-26T01:21:46.475Z,23.30
2023-01-26T01:24:14.338Z,23.30
2023-01-26T01:26:42.119Z,23.30
2023-01-26T01:29:15.651Z,23.30
2023-01-26T01:31:43.698Z,23.20
2023-01-26T01:34:11.690Z,23.20
2023-01-26T01:36:39.508Z,23.20
2023-01-26T01:39:07.095Z,23.20
2023-01-26T01:41:34.755Z,23.20
2023-01-26T01:44:25.216Z,23.10
2023-01-26T01:47:02.562Z,23.20
2023-01-26T01:49:48.393Z,23.10
2023-01-26T01:52:26.478Z,23.10
2023-01-26T01:55:02.300Z,23.10
2023-01-26T01:57:45.250Z,23.10
2023-01-26T02:00:22.463Z,23.10
2023-01-26T02:03:11.830Z,23.00
2023-01-26T02:06:10.271Z,23.00
2023-01-26T02:08:50.131Z,23.00
2023-01-26T02:11:32.898Z,23.00
2023-01-26T02:14:09.179Z,23.00
2023-01-26T02:16:40.144Z,23.00
2023-01-26T02:19:17.797Z,22.90
2023-01-26T02:21:48.034Z,22.90
2023-01-26T02:24:26.692Z,22.90
2023-01-26T02:26:56.087Z,22.90
2023-01-26T02:29:24.563Z,22.90
2023-01-26T02:31:53.872Z,22.90
2023-01-26T02:34:24.924Z,22.80
2023-01-26T02:37:02.417Z,22.80
2023-01-26T02:39:57.217Z,22.80
2023-01-26T02:42:42.261Z,22.80
2023-01-26T02:45:14.671Z,22.80
2023-01-26T02:47:45.061Z,22.80
2023-01-26T02:50:14.082Z,22.80
2023-01-26T02:52:43.615Z,22.80
2023-01-26T02:55:25.536Z,22.80
2023-01-26T02:57:59.801Z,22.80
2023-01-26T03:00:37.450Z,22.70
2023-01-26T03:03:16.243Z,22.70
2023-01-26T03:05:43.922Z,22.70
2023-01-26T03:08:11.479Z,22.70
2023-01-26T03:10:39.685Z,22.60
2023-01-26T03:13:08.047Z,22.60
2023-01-26T03:15:43.461Z,22.60
2023-01-26T03:18:35.969Z,22.70
2023-01-26T03:21:30.587Z,22.60
2023-01-26T03:24:17.164Z,22.60
2023-01-26T03:27:03.920Z,22.60
2023-01-26T03:29:34.261Z,22.60
2023-01-26T03:32:02.768Z,22.60
2023-01-26T03:34:30.555Z,22.60
2023-01-26T03:36:58.622Z,22.60
2023-01-26T03:39:47.744Z,22.50
2023-01-26T03:42:34.635Z,22.50
2023-01-26T03:45:20.776Z,22.50
2023-01-26T03:48:08.602Z,22.50
2023-01-26T03:50:54.984Z,22.50
2023-01-26T03:53:45.443Z,22.40
2023-01-26T03:56:20.265Z,22.40
2023-01-26T03:58:57.413Z,22.40
2023-01-26T04:01:28.473Z,22.40
2023-01-26T04:04:17.953Z,22.40
2023-01-26T04:07:08.350Z,22.30
2023-01-26T04:09:39.805Z,22.30
2023-01-26T04:12:07.803Z,22.30
2023-01-26T04:14:58.841Z,22.30
2023-01-26T04:17:46.533Z,22.30
2023-01-26T04:20:33.733Z,22.30
2023-01-26T04:23:01.613Z,22.30
2023-01-26T04:25:29.778Z,22.30
2023-01-26T04:27:58.596Z,22.20
2023-01-26T04:30:26.493Z,22.20
2023-01-26T04:32:54.443Z,22.20
2023-01-26T04:35:22.034Z,22.20
2023-01-26T04:37:49.571Z,22.20
2023-01-26T04:40:17.839Z,22.20
2023-01-26T04:42:46.908Z,22.20
2023-01-26T04:45:14.272Z,22.20
2023-01-26T04:47:43.267Z,22.20
2023-01-26T04:50:11.578Z,22.20
2023-01-26T04:52:39.696Z,22.10
2023-01-26T04:55:07.909Z,22.10
2023-01-26T04:57:35.677Z,22.10
2023-01-26T05:00:05.456Z,22.10
2023-01-26T05:02:33.276Z,22.10
2023-01-26T05:05:00.830Z,22.10
2023-01-26T05:07:29.183Z,22.10
2023-01-26T05:09:57.454Z,22.10
2023-01-26T05:12:43.039Z,22.10
2023-01-26T05:15:30.510Z,22.10
2023-01-26T05:18:03.769Z,22.10
2023-01-26T05:20:50.491Z,22.00
2023-01-26T05:23:23.377Z,22.00
2023-01-26T05:26:09.982Z,22.00
2023-01-26T05:28:55.653Z,22.00
2023-01-26T05:31:23.571Z,22.00
2023-01-26T05:33:51.254Z,22.00
2023-01-26T05:36:22.702Z,22.00
2023-01-26T05:38:50.732Z,22.00
2023-01-26T05:41:22.233Z,22.00
2023-01-26T05:44:10.430Z,22.00
2023-01-26T05:46:48.998Z,22.00
2023-01-26T05:49:16.706Z,22.00
2023-01-26T05:51:44.381Z,21.90
2023-01-26T05:54:12.498Z,21.90
2023-01-26T05:56:40.763Z,21.90
2023-01-26T05:59:09.095Z,21.90
2023-01-26T06:01:36.717Z,21.90
2023-01-26T06:04:07.772Z,21.90
2023-01-26T06:06:57.211Z,21.90
2023-01-26T06:09:29.428Z,21.90
2023-01-26T06:12:18.546Z,21.90
2023-01-26T06:14:59.619Z,21.90
2023-01-26T06:17:40.640Z,21.90
2023-01-26T06:20:11.664Z,21.90
2023-01-26T06:22:39.877Z,21.80
2023-01-26T06:25:07.922Z,21.90
2023-01-26T06:27:36.562Z,21.80
2023-01-26T06:30:12.036Z,21.90
2023-01-26T06:32:40.751Z,21.80
2023-01-26T06:35:09.103Z,21.80
2023-01-26T06:37:37.390Z,21.80
2023-01-26T06:40:05.956Z,21.80
2023-01-26T06:42:33.766Z,21.80
2023-01-26T06:45:01.462Z,21.80
2023-01-26T06:47:28.892Z,21.80
2023-01-26T06:49:56.504Z,21.80
2023-01-26T06:52:31.523Z,21.80
2023-01-26T06:55:05.300Z,21.80
2023-01-26T06:57:51.681Z,21.80
2023-01-26T07:00:42.190Z,21.80
2023-01-26T07:03:19.157Z,21.70
2023-01-26T07:05:46.678Z,21.80
2023-01-26T07:08:14.576Z,21.80
2023-01-26T07:10:42.086Z,21.80
2023-01-26T07:13:09.610Z,21.80
2023-01-26T07:15:37.272Z,21.80
2023-01-26T07:18:04.952Z,21.80
2023-01-26T07:20:32.321Z,21.80
2023-01-26T07:23:02.886Z,21.80
2023-01-26T07:25:30.266Z,21.80
2023-01-26T07:28:00.147Z,21.80
2023-01-26T07:30:28.171Z,21.80
2023-01-26T07:32:55.937Z,21.80
2023-01-26T07:35:23.559Z,21.80
2023-01-26T07:37:51.195Z,21.90
2023-01-26T07:40:20.086Z,21.80
2023-01-26T07:42:48.079Z,21.80
2023-01-26T07:45:19.565Z,21.90
2023-01-26T07:47:48.284Z,21.90
2023-01-26T07:50:16.146Z,21.80
2023-01-26T07:52:45.066Z,21.80
2023-01-26T07:55:13.233Z,21.80
2023-01-26T07:57:41.760Z,21.90
2023-01-26T08:00:10.641Z,21.90
2023-01-26T08:02:40.975Z,21.80
2023-01-26T08:05:09.608Z,21.80
2023-01-26T08:07:37.513Z,21.90
2023-01-26T08:10:06.016Z,21.90
2023-01-26T08:12:39.060Z,21.90
2023-01-26T08:15:09.137Z,21.90
2023-01-26T08:17:36.752Z,21.90
2023-01-26T08:20:05.027Z,21.80
2023-01-26T08:22:35.757Z,21.90
2023-01-26T08:25:03.389Z,21.90
2023-01-26T08:27:30.811Z,21.90
2023-01-26T08:29:58.875Z,21.90
2023-01-26T08:32:31.320Z,21.90
2023-01-26T08:34:58.939Z,21.80
2023-01-26T08:37:26.543Z,21.80
2023-01-26T08:39:54.120Z,21.90
2023-01-26T08:42:22.753Z,21.80
2023-01-26T08:44:50.376Z,21.80
2023-01-26T08:47:17.827Z,21.80
2023-01-26T08:49:45.209Z,21.80
2023-01-26T08:52:12.827Z,21.80
2023-01-26T08:54:40.374Z,21.90
2023-01-26T08:57:07.971Z,21.80
2023-01-26T08:59:35.402Z,21.90
2023-01-26T09:02:02.899Z,21.80
2023-01-26T09:04:30.558Z,21.80
2023-01-26T09:06:58.400Z,21.90
2023-01-26T09:09:26.247Z,21.90
2023-01-26T09:11:56.673Z,21.90
2023-01-26T09:14:24.777Z,21.80
2023-01-26T09:16:52.632Z,21.90
2023-01-26T09:19:20.359Z,21.90
2023-01-26T09:21:47.824Z,21.80
2023-01-26T09:24:15.641Z,21.80
2023-01-26T09:26:45.790Z,21.80
2023-01-26T09:29:13.641Z,21.80
2023-01-26T09:31:41.418Z,21.80
2023-01-26T09:34:09.001Z,21.80
2023-01-26T09:36:36.388Z,21.80
2023-01-26T09:39:04.252Z,21.90
2023-01-26T09:41:56.717Z,21.90
2023-01-26T09:44:26.757Z,21.90
2023-01-26T09:47:24.905Z,21.80
2023-01-26T09:50:02.210Z,21.80
2023-01-26T09:52:58.064Z,21.80
2023-01-26T09:55:26.284Z,21.80
2023-01-26T09:58:07.297Z,21.80
2023-01-26T10:00:47.532Z,21.80
2023-01-26T10:03:51.751Z,21.80
2023-01-26T10:06:31.535Z,21.80
2023-01-26T10:09:35.154Z,21.80
2023-01-26T10:12:09.901Z,21.80
2023-01-26T10:14:52.294Z,21.80
2023-01-26T10:17:42.746Z,21.80
2023-01-26T10:20:16.115Z,21.80
2023-01-26T10:22:48.335Z,21.80
2023-01-26T10:25:41.994Z,21.80
2023-01-26T10:28:20.878Z,21.90
2023-01-26T10:30:51.622Z,21.80
2023-01-26T10:33:21.403Z,21.90
2023-01-26T10:35:49.413Z,21.80
2023-01-26T10:38:38.176Z,21.80
2023-01-26T10:41:24.406Z,21.80
2023-01-26T10:43:56.803Z,21.80
2023-01-26T10:46:38.240Z,21.80
2023-01-26T10:49:11.911Z,21.80
2023-01-26T10:51:45.876Z,21.80
2023-01-26T10:54:26.340Z,21.80
2023-01-26T10:57:04.660Z,21.80
2023-01-26T10:59:35.631Z,21.80
2023-01-26T11:02:27.874Z,21.80
2023-01-26T11:05:07.489Z,21.80
2023-01-26T11:07:44.107Z,21.80
2023-01-26T11:10:23.776Z,21.80
2023-01-26T11:13:06.566Z,21.80
2023-01-26T11:16:01.360Z,21.80
2023-01-26T11:18:56.376Z,21.80
2023-01-26T11:21:50.953Z,21.80
2023-01-26T11:24:28.398Z,21.80
2023-01-26T11:27:22.379Z,21.80
2023-01-26T11:30:10.520Z,21.80
2023-01-26T11:33:02.110Z,21.80
2023-01-26T11:36:10.137Z,21.80
2023-01-26T11:39:01.545Z,21.80
2023-01-26T11:42:01.015Z,21.90
2023-01-26T11:44:56.766Z,21.80
2023-01-26T11:47:50.755Z,21.80
2023-01-26T11:50:42.195Z,21.80
2023-01-26T11:53:40.158Z,21.80
2023-01-26T11:56:53.942Z,21.80
2023-01-26T11:59:30.723Z,21.80
2023-01-26T12:02:25.172Z,21.80
2023-01-26T12:04:56.019Z,21.80
2023-01-26T12:07:54.956Z,21.80
2023-01-26T12:11:22.745Z,21.80
2023-01-26T12:14:13.457Z,21.80
2023-01-26T12:16:43.678Z,21.80
2023-01-26T12:19:16.986Z,21.80
2023-01-26T12:21:46.276Z,21.80
2023-01-26T12:24:54.228Z,21.80
2023-01-26T12:27:41.282Z,21.80
2023-01-26T12:30:36.220Z,21.80
2023-01-26T12:33:04.247Z,21.80
2023-01-26T12:36:00.314Z,21.80
2023-01-26T12:39:00.757Z,21.80
2023-01-26T12:42:03.944Z,21.80
2023-01-26T12:44:42.604Z,21.80
2023-01-26T12:47:33.153Z,21.80
2023-01-26T12:50:10.448Z,21.80
2023-01-26T12:52:46.224Z,21.90
2023-01-26T12:55:41.243Z,21.80
2023-01-26T12:58:13.384Z,21.90
2023-01-26T13:00:41.332Z,21.80
2023-01-26T13:03:21.911Z,21.80
2023-01-26T13:06:03.454Z,21.80
2023-01-26T13:08:30.882Z,21.80
2023-01-26T13:11:07.141Z,21.80
2023-01-26T13:13:55.865Z,21.80
2023-01-26T13:16:26.449Z,21.80
2023-01-26T13:18:59.319Z,21.90
2023-01-26T13:21:49.661Z,21.90
2023-01-26T13:24:17.455Z,21.90
2023-01-26T13:27:00.086Z,21.90
2023-01-26T13:29:34.755Z,21.90
2023-01-26T13:32:09.797Z,21.80
2023-01-26T13:34:45.893Z,21.80
2023-01-26T13:37:47.129Z,21.80
2023-01-26T13:40:38.313Z,21.80
2023-01-26T13:43:42.674Z,21.80
2023-01-26T13:46:26.093Z,21.80
2023-01-26T13:48:56.468Z,21.80
2023-01-26T13:51:35.662Z,21.80
2023-01-26T13:54:14.460Z,21.80
2023-01-26T13:56:44.262Z,21.80
2023-01-26T13:59:17.489Z,21.80
2023-01-26T14:01:47.710Z,21.80
2023-01-26T14:04:38.062Z,21.90
2023-01-26T14:07:12.280Z,21.90
2023-01-26T14:09:55.330Z,21.90
2023-01-26T14:12:36.118Z,21.90
2023-01-26T14:15:07.584Z,21.90
2023-01-26T14:17:46.952Z,21.90
2023-01-26T14:20:29.928Z,21.90
2023-01-26T14:23:13.913Z,21.90
2023-01-26T14:25:47.187Z,21.90
2023-01-26T14:28:23.141Z,21.90
2023-01-26T14:31:02.975Z,21.90
2023-01-26T14:33:31.409Z,21.90
2023-01-26T14:36:02.386Z,21.80
2023-01-26T14:38:40.878Z,21.80
2023-01-26T14:41:19.206Z,21.80
2023-01-26T14:43:47.037Z,21.80
2023-01-26T14:46:46.542Z,21.80
2023-01-26T14:49:26.511Z,21.90
2023-01-26T14:51:57.957Z,21.90
2023-01-26T14:54:26.410Z,21.90
2023-01-26T14:56:54.251Z,21.80
2023-01-26T14:59:34.388Z,21.80
2023-01-26T15:02:21.747Z,21.80
2023-01-26T15:05:04.741Z,21.80
2023-01-26T15:07:39.295Z,21.70
2023-01-26T15:10:35.955Z,21.80
2023-01-26T15:13:15.221Z,21.70
2023-01-26T15:15:50.484Z,21.70
2023-01-26T15:18:21.001Z,21.70
2023-01-26T15:21:05.099Z,21.70
2023-01-26T15:23:38.709Z,21.70
2023-01-26T15:26:32.452Z,21.70
2023-01-26T15:29:29.673Z,21.70
2023-01-26T15:31:58.996Z,21.70
2023-01-26T15:34:42.356Z,21.70
2023-01-26T15:37:32.888Z,21.70
2023-01-26T15:40:00.568Z,21.70
2023-01-26T15:42:33.158Z,21.70
2023-01-26T15:45:00.773Z,21.70
2023-01-26T15:47:28.536Z,21.70
2023-01-26T15:49:57.403Z,21.70
2023-01-26T15:52:30.582Z,21.70
2023-01-26T15:54:58.211Z,21.70
2023-01-26T15:57:25.755Z,21.70
2023-01-26T15:59:54.101Z,21.70
